sensor_id;sensor_type;location;lat;lon;timestamp;pressure;altitude;pressure_sealevel;temperature;humidity
13869;BME280;7004;48.206;16.402;2023-04-04T00:00:30;100442.91;;;3.11;44.74
13869;BME280;7004;48.206;16.402;2023-04-04T00:02:56;100447.56;;;2.96;45.09
13869;BME280;7004;48.206;16.402;2023-04-04T00:05:23;100438.28;;;2.83;44.67
13869;BME280;7004;48.206;16.402;2023-04-04T00:07:49;100437.38;;;2.84;44.84
13869;BME280;7004;48.206;16.402;2023-04-04T00:10:15;100433.19;;;3.17;44.83
13869;BME280;7004;48.206;16.402;2023-04-04T00:12:42;100444.44;;;2.79;44.65
13869;BME280;7004;48.206;16.402;2023-04-04T00:15:09;100440.75;;;2.89;45.15
13869;BME280;7004;48.206;16.402;2023-04-04T00:17:35;100441.81;;;2.80;44.37
13869;BME280;7004;48.206;16.402;2023-04-04T00:20:02;100439.66;;;2.99;44.32
13869;BME280;7004;48.206;16.402;2023-04-04T00:22:29;100436.75;;;2.70;43.81
13869;BME280;7004;48.206;16.402;2023-04-04T00:24:55;100438.50;;;2.71;44.65
13869;BME280;7004;48.206;16.402;2023-04-04T00:27:22;100442.38;;;2.95;43.59
13869;BME280;7004;48.206;16.402;2023-04-04T00:29:48;100440.97;;;2.78;44.19
13869;BME280;7004;48.206;16.402;2023-04-04T00:32:14;100436.44;;;2.88;43.40
13869;BME280;7004;48.206;16.402;2023-04-04T00:34:41;100430.06;;;3.01;44.25
13869;BME280;7004;48.206;16.402;2023-04-04T00:37:10;100434.63;;;2.47;44.19
13869;BME280;7004;48.206;16.402;2023-04-04T00:39:37;100441.28;;;2.61;43.99
13869;BME280;7004;48.206;16.402;2023-04-04T00:42:04;100431.72;;;2.62;43.89
13869;BME280;7004;48.206;16.402;2023-04-04T00:44:32;100435.69;;;2.81;44.89
13869;BME280;7004;48.206;16.402;2023-04-04T00:47:00;100446.56;;;2.60;44.48
13869;BME280;7004;48.206;16.402;2023-04-04T00:49:27;100443.66;;;2.74;43.77
13869;BME280;7004;48.206;16.402;2023-04-04T00:51:53;100441.66;;;2.88;44.30
13869;BME280;7004;48.206;16.402;2023-04-04T00:54:20;100442.13;;;3.05;44.37
13869;BME280;7004;48.206;16.402;2023-04-04T00:56:46;100442.81;;;2.72;45.08
13869;BME280;7004;48.206;16.402;2023-04-04T00:59:13;100444.22;;;2.45;45.14
13869;BME280;7004;48.206;16.402;2023-04-04T01:01:40;100435.84;;;2.27;45.72
13869;BME280;7004;48.206;16.402;2023-04-04T01:04:07;100444.50;;;2.74;45.75
13869;BME280;7004;48.206;16.402;2023-04-04T01:06:34;100433.19;;;2.75;45.10
13869;BME280;7004;48.206;16.402;2023-04-04T01:09:01;100440.50;;;2.56;44.77
13869;BME280;7004;48.206;16.402;2023-04-04T01:11:27;100451.13;;;2.47;45.15
13869;BME280;7004;48.206;16.402;2023-04-04T01:13:54;100448.19;;;2.64;44.94
13869;BME280;7004;48.206;16.402;2023-04-04T01:16:20;100450.88;;;2.61;45.18
13869;BME280;7004;48.206;16.402;2023-04-04T01:18:47;100450.03;;;2.59;45.39
13869;BME280;7004;48.206;16.402;2023-04-04T01:21:15;100444.34;;;2.83;45.05
13869;BME280;7004;48.206;16.402;2023-04-04T01:24:01;100439.69;;;2.54;45.57
13869;BME280;7004;48.206;16.402;2023-04-04T01:26:30;100436.81;;;2.68;45.11
13869;BME280;7004;48.206;16.402;2023-04-04T01:28:57;100433.44;;;2.63;45.74
13869;BME280;7004;48.206;16.402;2023-04-04T01:34:37;100436.50;;;2.83;45.96
13869;BME280;7004;48.206;16.402;2023-04-04T01:37:22;100440.81;;;2.86;45.29
13869;BME280;7004;48.206;16.402;2023-04-04T01:40:11;100444.50;;;2.74;45.25
13869;BME280;7004;48.206;16.402;2023-04-04T01:42:43;100451.50;;;2.74;45.93
13869;BME280;7004;48.206;16.402;2023-04-04T01:45:10;100447.91;;;2.79;45.14
13869;BME280;7004;48.206;16.402;2023-04-04T01:47:39;100449.06;;;2.65;44.70
13869;BME280;7004;48.206;16.402;2023-04-04T01:50:08;100452.19;;;2.82;45.53
13869;BME280;7004;48.206;16.402;2023-04-04T01:52:35;100443.66;;;2.75;45.97
13869;BME280;7004;48.206;16.402;2023-04-04T01:55:03;100447.41;;;3.04;44.90
13869;BME280;7004;48.206;16.402;2023-04-04T01:57:29;100453.16;;;2.78;44.99
13869;BME280;7004;48.206;16.402;2023-04-04T01:59:56;100449.75;;;2.28;44.97
13869;BME280;7004;48.206;16.402;2023-04-04T02:02:22;100448.44;;;2.52;45.46
13869;BME280;7004;48.206;16.402;2023-04-04T02:04:48;100446.84;;;2.43;45.05
13869;BME280;7004;48.206;16.402;2023-04-04T02:07:15;100443.72;;;2.24;46.21
13869;BME280;7004;48.206;16.402;2023-04-04T02:09:41;100445.69;;;2.59;45.37
13869;BME280;7004;48.206;16.402;2023-04-04T02:12:07;100439.09;;;2.40;45.49
13869;BME280;7004;48.206;16.402;2023-04-04T02:14:33;100440.13;;;2.31;45.85
13869;BME280;7004;48.206;16.402;2023-04-04T02:17:00;100429.78;;;2.27;45.62
13869;BME280;7004;48.206;16.402;2023-04-04T02:19:27;100432.78;;;2.95;45.34
13869;BME280;7004;48.206;16.402;2023-04-04T02:21:53;100434.81;;;2.36;45.07
13869;BME280;7004;48.206;16.402;2023-04-04T02:24:21;100425.25;;;2.36;46.08
13869;BME280;7004;48.206;16.402;2023-04-04T02:26:48;100427.53;;;2.53;44.57
13869;BME280;7004;48.206;16.402;2023-04-04T02:29:14;100432.03;;;2.47;46.10
13869;BME280;7004;48.206;16.402;2023-04-04T02:31:41;100427.81;;;1.90;45.68
13869;BME280;7004;48.206;16.402;2023-04-04T02:34:07;100429.47;;;1.94;46.21
13869;BME280;7004;48.206;16.402;2023-04-04T02:36:33;100433.03;;;1.90;46.46
13869;BME280;7004;48.206;16.402;2023-04-04T02:39:00;100428.97;;;2.23;46.38
13869;BME280;7004;48.206;16.402;2023-04-04T02:41:27;100430.25;;;2.47;46.06
13869;BME280;7004;48.206;16.402;2023-04-04T02:43:53;100429.50;;;2.42;45.72
13869;BME280;7004;48.206;16.402;2023-04-04T02:46:19;100432.38;;;2.27;46.80
13869;BME280;7004;48.206;16.402;2023-04-04T02:48:45;100432.78;;;2.02;46.87
13869;BME280;7004;48.206;16.402;2023-04-04T02:51:12;100427.94;;;2.30;45.87
13869;BME280;7004;48.206;16.402;2023-04-04T02:53:38;100439.03;;;1.93;46.43
13869;BME280;7004;48.206;16.402;2023-04-04T02:56:04;100429.38;;;2.00;46.85
13869;BME280;7004;48.206;16.402;2023-04-04T02:58:30;100429.25;;;2.06;46.81
13869;BME280;7004;48.206;16.402;2023-04-04T03:00:57;100428.53;;;1.98;47.37
13869;BME280;7004;48.206;16.402;2023-04-04T03:03:23;100424.22;;;1.95;47.37
13869;BME280;7004;48.206;16.402;2023-04-04T03:05:49;100423.00;;;2.15;47.70
13869;BME280;7004;48.206;16.402;2023-04-04T03:08:16;100418.63;;;2.18;47.17
13869;BME280;7004;48.206;16.402;2023-04-04T03:10:44;100410.22;;;2.00;47.97
13869;BME280;7004;48.206;16.402;2023-04-04T03:13:11;100407.06;;;2.32;47.27
13869;BME280;7004;48.206;16.402;2023-04-04T03:15:37;100412.75;;;2.06;47.35
13869;BME280;7004;48.206;16.402;2023-04-04T03:18:06;100410.34;;;1.95;46.90
13869;BME280;7004;48.206;16.402;2023-04-04T03:20:32;100402.41;;;2.00;47.55
13869;BME280;7004;48.206;16.402;2023-04-04T03:22:59;100403.88;;;1.65;48.48
13869;BME280;7004;48.206;16.402;2023-04-04T03:25:25;100396.16;;;1.59;48.99
13869;BME280;7004;48.206;16.402;2023-04-04T03:27:51;100393.38;;;1.69;48.34
13869;BME280;7004;48.206;16.402;2023-04-04T03:30:17;100394.84;;;1.86;48.25
13869;BME280;7004;48.206;16.402;2023-04-04T03:32:44;100390.28;;;1.44;49.30
13869;BME280;7004;48.206;16.402;2023-04-04T03:35:10;100382.19;;;2.12;48.50
13869;BME280;7004;48.206;16.402;2023-04-04T03:37:36;100389.38;;;1.48;48.94
13869;BME280;7004;48.206;16.402;2023-04-04T03:40:03;100381.28;;;1.65;48.92
13869;BME280;7004;48.206;16.402;2023-04-04T03:42:33;100383.34;;;1.45;49.94
13869;BME280;7004;48.206;16.402;2023-04-04T03:45:00;100386.53;;;1.06;50.00
13869;BME280;7004;48.206;16.402;2023-04-04T03:47:26;100385.63;;;1.07;50.09
13869;BME280;7004;48.206;16.402;2023-04-04T03:49:52;100386.78;;;1.48;49.70
13869;BME280;7004;48.206;16.402;2023-04-04T03:52:21;100384.84;;;1.61;49.34
13869;BME280;7004;48.206;16.402;2023-04-04T03:54:47;100397.25;;;1.45;49.49
13869;BME280;7004;48.206;16.402;2023-04-04T03:57:13;100390.06;;;1.60;49.83
13869;BME280;7004;48.206;16.402;2023-04-04T03:59:39;100396.41;;;1.42;49.52
13869;BME280;7004;48.206;16.402;2023-04-04T04:02:12;100377.50;;;1.29;49.53
13869;BME280;7004;48.206;16.402;2023-04-04T04:04:38;100381.97;;;1.22;49.40
13869;BME280;7004;48.206;16.402;2023-04-04T04:07:06;100385.38;;;1.79;48.91
13869;BME280;7004;48.206;16.402;2023-04-04T04:09:32;100385.88;;;1.49;50.35
13869;BME280;7004;48.206;16.402;2023-04-04T04:11:58;100388.19;;;1.11;50.55
13869;BME280;7004;48.206;16.402;2023-04-04T04:14:25;100386.47;;;1.67;49.53
13869;BME280;7004;48.206;16.402;2023-04-04T04:16:51;100387.19;;;1.19;49.97
13869;BME280;7004;48.206;16.402;2023-04-04T04:19:17;100382.25;;;1.58;49.57
13869;BME280;7004;48.206;16.402;2023-04-04T04:21:43;100382.75;;;1.27;50.23
13869;BME280;7004;48.206;16.402;2023-04-04T04:24:09;100377.03;;;1.04;50.58
13869;BME280;7004;48.206;16.402;2023-04-04T04:26:36;100379.38;;;1.19;50.51
13869;BME280;7004;48.206;16.402;2023-04-04T04:29:02;100377.94;;;0.98;51.25
13869;BME280;7004;48.206;16.402;2023-04-04T04:31:28;100386.09;;;1.36;51.08
13869;BME280;7004;48.206;16.402;2023-04-04T04:33:55;100388.94;;;1.19;50.73
13869;BME280;7004;48.206;16.402;2023-04-04T04:36:21;100387.44;;;1.02;50.90
13869;BME280;7004;48.206;16.402;2023-04-04T04:38:47;100386.22;;;1.28;51.10
13869;BME280;7004;48.206;16.402;2023-04-04T04:41:13;100388.28;;;1.04;51.58
13869;BME280;7004;48.206;16.402;2023-04-04T04:43:39;100397.09;;;0.93;51.97
13869;BME280;7004;48.206;16.402;2023-04-04T04:46:06;100392.66;;;1.02;51.91
13869;BME280;7004;48.206;16.402;2023-04-04T04:48:35;100397.66;;;1.18;51.46
13869;BME280;7004;48.206;16.402;2023-04-04T04:51:01;100403.72;;;1.18;51.79
13869;BME280;7004;48.206;16.402;2023-04-04T04:53:29;100391.25;;;1.39;52.18
13869;BME280;7004;48.206;16.402;2023-04-04T04:55:55;100398.66;;;1.06;52.01
13869;BME280;7004;48.206;16.402;2023-04-04T04:58:21;100405.41;;;1.19;51.85
13869;BME280;7004;48.206;16.402;2023-04-04T05:00:48;100398.91;;;0.87;52.05
13869;BME280;7004;48.206;16.402;2023-04-04T05:03:14;100399.44;;;1.13;51.25
13869;BME280;7004;48.206;16.402;2023-04-04T05:05:44;100405.06;;;1.44;52.00
13869;BME280;7004;48.206;16.402;2023-04-04T05:08:10;100401.78;;;1.31;51.22
13869;BME280;7004;48.206;16.402;2023-04-04T05:10:36;100411.78;;;1.00;51.81
13869;BME280;7004;48.206;16.402;2023-04-04T05:13:02;100408.03;;;1.19;51.37
13869;BME280;7004;48.206;16.402;2023-04-04T05:15:29;100416.28;;;1.47;50.36
13869;BME280;7004;48.206;16.402;2023-04-04T05:17:56;100412.94;;;1.41;49.97
13869;BME280;7004;48.206;16.402;2023-04-04T05:20:23;100417.38;;;1.34;49.63
13869;BME280;7004;48.206;16.402;2023-04-04T05:22:49;100423.97;;;0.96;50.63
13869;BME280;7004;48.206;16.402;2023-04-04T05:25:15;100422.34;;;0.89;51.44
13869;BME280;7004;48.206;16.402;2023-04-04T05:27:43;100411.31;;;1.32;50.33
13869;BME280;7004;48.206;16.402;2023-04-04T05:30:12;100418.22;;;1.35;50.37
13869;BME280;7004;48.206;16.402;2023-04-04T05:32:39;100420.13;;;1.22;48.80
13869;BME280;7004;48.206;16.402;2023-04-04T05:35:06;100417.41;;;1.31;48.50
13869;BME280;7004;48.206;16.402;2023-04-04T05:37:32;100423.81;;;1.69;48.37
13869;BME280;7004;48.206;16.402;2023-04-04T05:39:58;100418.91;;;1.47;47.45
13869;BME280;7004;48.206;16.402;2023-04-04T05:42:24;100420.34;;;1.67;47.36
13869;BME280;7004;48.206;16.402;2023-04-04T05:44:51;100427.03;;;1.26;47.22
13869;BME280;7004;48.206;16.402;2023-04-04T05:47:17;100426.31;;;1.75;46.73
13869;BME280;7004;48.206;16.402;2023-04-04T05:49:43;100429.75;;;1.77;46.52
13869;BME280;7004;48.206;16.402;2023-04-04T05:52:09;100440.13;;;1.80;47.13
13869;BME280;7004;48.206;16.402;2023-04-04T05:54:35;100440.47;;;1.57;46.34
13869;BME280;7004;48.206;16.402;2023-04-04T05:57:02;100441.88;;;1.80;46.30
13869;BME280;7004;48.206;16.402;2023-04-04T05:59:28;100447.97;;;1.79;46.41
13869;BME280;7004;48.206;16.402;2023-04-04T06:01:55;100454.28;;;2.18;46.33
13869;BME280;7004;48.206;16.402;2023-04-04T06:04:21;100451.16;;;1.98;47.03
13869;BME280;7004;48.206;16.402;2023-04-04T06:06:47;100458.19;;;1.92;46.48
13869;BME280;7004;48.206;16.402;2023-04-04T06:09:14;100453.81;;;1.93;45.86
13869;BME280;7004;48.206;16.402;2023-04-04T06:11:40;100452.78;;;2.03;45.68
13869;BME280;7004;48.206;16.402;2023-04-04T06:14:06;100448.91;;;1.74;46.08
13869;BME280;7004;48.206;16.402;2023-04-04T06:16:34;100460.19;;;1.75;46.59
13869;BME280;7004;48.206;16.402;2023-04-04T06:19:01;100453.75;;;2.47;45.27
13869;BME280;7004;48.206;16.402;2023-04-04T06:21:27;100459.97;;;2.40;46.54
13869;BME280;7004;48.206;16.402;2023-04-04T06:23:54;100453.53;;;2.58;44.84
13869;BME280;7004;48.206;16.402;2023-04-04T06:26:20;100455.34;;;2.06;45.62
13869;BME280;7004;48.206;16.402;2023-04-04T06:28:48;100462.38;;;2.01;44.83
13869;BME280;7004;48.206;16.402;2023-04-04T06:31:15;100456.50;;;1.88;45.60
13869;BME280;7004;48.206;16.402;2023-04-04T06:33:42;100460.00;;;1.87;45.73
13869;BME280;7004;48.206;16.402;2023-04-04T06:36:08;100455.81;;;2.28;45.19
13869;BME280;7004;48.206;16.402;2023-04-04T06:38:34;100452.78;;;2.51;44.91
13869;BME280;7004;48.206;16.402;2023-04-04T06:41:01;100446.72;;;2.96;44.60
13869;BME280;7004;48.206;16.402;2023-04-04T06:43:28;100450.13;;;2.98;43.99
13869;BME280;7004;48.206;16.402;2023-04-04T06:45:54;100442.41;;;2.00;44.19
13869;BME280;7004;48.206;16.402;2023-04-04T06:48:21;100441.56;;;2.48;44.43
13869;BME280;7004;48.206;16.402;2023-04-04T06:50:47;100445.94;;;3.31;43.63
13869;BME280;7004;48.206;16.402;2023-04-04T06:53:13;100441.34;;;3.02;44.03
13869;BME280;7004;48.206;16.402;2023-04-04T06:55:39;100452.97;;;2.87;43.05
13869;BME280;7004;48.206;16.402;2023-04-04T06:58:05;100449.13;;;3.05;42.92
13869;BME280;7004;48.206;16.402;2023-04-04T07:00:31;100455.94;;;4.24;41.78
13869;BME280;7004;48.206;16.402;2023-04-04T07:02:58;100461.41;;;3.00;42.51
13869;BME280;7004;48.206;16.402;2023-04-04T07:05:26;100454.44;;;3.41;42.45
13869;BME280;7004;48.206;16.402;2023-04-04T07:07:53;100449.38;;;4.41;41.15
13869;BME280;7004;48.206;16.402;2023-04-04T07:10:20;100452.81;;;3.74;42.52
13869;BME280;7004;48.206;16.402;2023-04-04T07:12:47;100445.88;;;3.34;42.76
13869;BME280;7004;48.206;16.402;2023-04-04T07:15:13;100441.09;;;3.53;41.47
13869;BME280;7004;48.206;16.402;2023-04-04T07:17:39;100442.16;;;4.50;39.91
13869;BME280;7004;48.206;16.402;2023-04-04T07:20:07;100447.25;;;4.55;39.88
13869;BME280;7004;48.206;16.402;2023-04-04T07:22:37;100428.00;;;5.46;39.10
13869;BME280;7004;48.206;16.402;2023-04-04T07:25:05;100429.22;;;6.43;37.64
13869;BME280;7004;48.206;16.402;2023-04-04T07:27:32;100444.25;;;4.69;40.10
13869;BME280;7004;48.206;16.402;2023-04-04T07:29:58;100433.91;;;4.95;38.97
13869;BME280;7004;48.206;16.402;2023-04-04T07:32:24;100423.69;;;6.00;37.98
13869;BME280;7004;48.206;16.402;2023-04-04T07:34:50;100433.69;;;4.72;39.10
13869;BME280;7004;48.206;16.402;2023-04-04T07:37:17;100426.56;;;5.36;38.44
13869;BME280;7004;48.206;16.402;2023-04-04T07:39:43;100420.13;;;5.18;38.53
13869;BME280;7004;48.206;16.402;2023-04-04T07:42:10;100436.72;;;4.88;38.85
13869;BME280;7004;48.206;16.402;2023-04-04T07:44:36;100426.66;;;5.33;38.16
13869;BME280;7004;48.206;16.402;2023-04-04T07:47:02;100425.38;;;6.01;37.81
13869;BME280;7004;48.206;16.402;2023-04-04T07:49:28;100434.16;;;5.74;37.19
13869;BME280;7004;48.206;16.402;2023-04-04T07:51:54;100419.25;;;5.18;38.06
13869;BME280;7004;48.206;16.402;2023-04-04T07:54:21;100443.66;;;4.90;38.41
13869;BME280;7004;48.206;16.402;2023-04-04T07:56:51;100434.81;;;5.52;38.40
13869;BME280;7004;48.206;16.402;2023-04-04T07:59:17;100433.59;;;6.44;36.45
13869;BME280;7004;48.206;16.402;2023-04-04T08:01:44;100428.72;;;5.52;36.85
13869;BME280;7004;48.206;16.402;2023-04-04T08:04:10;100431.34;;;4.94;37.78
13869;BME280;7004;48.206;16.402;2023-04-04T08:06:36;100437.59;;;5.47;37.41
13869;BME280;7004;48.206;16.402;2023-04-04T08:09:04;100428.22;;;5.67;37.23
13869;BME280;7004;48.206;16.402;2023-04-04T08:11:30;100438.38;;;4.28;38.43
13869;BME280;7004;48.206;16.402;2023-04-04T08:13:56;100432.16;;;4.33;37.99
13869;BME280;7004;48.206;16.402;2023-04-04T08:16:22;100441.03;;;6.04;36.84
13869;BME280;7004;48.206;16.402;2023-04-04T08:18:48;100444.38;;;4.95;37.71
13869;BME280;7004;48.206;16.402;2023-04-04T08:21:14;100451.59;;;4.56;37.78
13869;BME280;7004;48.206;16.402;2023-04-04T08:23:40;100428.81;;;5.77;36.73
13869;BME280;7004;48.206;16.402;2023-04-04T08:26:06;100423.53;;;5.50;37.21
13869;BME280;7004;48.206;16.402;2023-04-04T08:28:33;100428.47;;;5.86;36.65
13869;BME280;7004;48.206;16.402;2023-04-04T08:30:59;100430.22;;;4.40;38.71
13869;BME280;7004;48.206;16.402;2023-04-04T08:33:25;100422.00;;;5.71;36.64
13869;BME280;7004;48.206;16.402;2023-04-04T08:35:51;100426.53;;;5.66;36.20
13869;BME280;7004;48.206;16.402;2023-04-04T08:38:17;100425.47;;;5.15;36.83
13869;BME280;7004;48.206;16.402;2023-04-04T08:40:48;100417.19;;;4.99;38.17
13869;BME280;7004;48.206;16.402;2023-04-04T08:43:15;100436.53;;;5.81;36.44
13869;BME280;7004;48.206;16.402;2023-04-04T08:45:44;100417.13;;;5.31;36.17
13869;BME280;7004;48.206;16.402;2023-04-04T08:48:14;100430.63;;;5.46;35.95
13869;BME280;7004;48.206;16.402;2023-04-04T08:50:41;100419.53;;;5.65;35.77
13869;BME280;7004;48.206;16.402;2023-04-04T08:53:10;100412.19;;;6.78;34.77
13869;BME280;7004;48.206;16.402;2023-04-04T08:55:37;100415.66;;;6.05;34.52
13869;BME280;7004;48.206;16.402;2023-04-04T08:58:04;100408.94;;;5.96;34.20
13869;BME280;7004;48.206;16.402;2023-04-04T09:00:31;100416.19;;;6.15;34.71
13869;BME280;7004;48.206;16.402;2023-04-04T09:03:23;100399.31;;;6.47;35.19
13869;BME280;7004;48.206;16.402;2023-04-04T09:05:54;100388.00;;;7.81;33.87
13869;BME280;7004;48.206;16.402;2023-04-04T09:08:21;100376.50;;;7.84;32.25
13869;BME280;7004;48.206;16.402;2023-04-04T09:10:50;100387.66;;;7.25;32.66
13869;BME280;7004;48.206;16.402;2023-04-04T09:13:17;100379.59;;;7.51;33.00
13869;BME280;7004;48.206;16.402;2023-04-04T09:15:52;100375.97;;;6.86;34.23
13869;BME280;7004;48.206;16.402;2023-04-04T09:18:22;100371.66;;;7.53;33.25
13869;BME280;7004;48.206;16.402;2023-04-04T09:20:48;100371.50;;;7.34;32.52
13869;BME280;7004;48.206;16.402;2023-04-04T09:23:17;100374.69;;;6.98;33.65
13869;BME280;7004;48.206;16.402;2023-04-04T09:25:49;100355.59;;;9.54;30.37
13869;BME280;7004;48.206;16.402;2023-04-04T09:28:17;100377.25;;;7.43;33.47
13869;BME280;7004;48.206;16.402;2023-04-04T09:30:47;100364.19;;;7.42;32.17
13869;BME280;7004;48.206;16.402;2023-04-04T09:33:19;100373.56;;;7.04;32.34
13869;BME280;7004;48.206;16.402;2023-04-04T09:35:58;100353.88;;;6.92;32.47
13869;BME280;7004;48.206;16.402;2023-04-04T09:38:28;100369.38;;;7.21;33.27
13869;BME280;7004;48.206;16.402;2023-04-04T09:40:56;100384.88;;;6.10;33.75
13869;BME280;7004;48.206;16.402;2023-04-04T09:43:23;100378.84;;;7.70;36.87
13869;BME280;7004;48.206;16.402;2023-04-04T09:45:50;100380.34;;;6.13;33.85
13869;BME280;7004;48.206;16.402;2023-04-04T09:48:31;100363.59;;;6.66;33.20
13869;BME280;7004;48.206;16.402;2023-04-04T09:50:58;100368.66;;;8.03;35.01
13869;BME280;7004;48.206;16.402;2023-04-04T09:53:25;100363.09;;;6.56;34.34
13869;BME280;7004;48.206;16.402;2023-04-04T09:55:55;100371.91;;;5.79;34.37
13869;BME280;7004;48.206;16.402;2023-04-04T09:58:28;100363.56;;;6.90;34.32
13869;BME280;7004;48.206;16.402;2023-04-04T10:01:08;100368.19;;;6.36;34.10
13869;BME280;7004;48.206;16.402;2023-04-04T10:03:36;100367.22;;;5.06;34.64
13869;BME280;7004;48.206;16.402;2023-04-04T10:06:06;100372.38;;;5.90;33.94
13869;BME280;7004;48.206;16.402;2023-04-04T10:08:38;100376.03;;;5.59;33.97
13869;BME280;7004;48.206;16.402;2023-04-04T10:11:06;100369.56;;;6.23;33.35
13869;BME280;7004;48.206;16.402;2023-04-04T10:13:35;100370.97;;;6.56;33.92
13869;BME280;7004;48.206;16.402;2023-04-04T10:16:05;100364.59;;;7.09;32.11
13869;BME280;7004;48.206;16.402;2023-04-04T10:18:33;100348.53;;;8.22;30.70
13869;BME280;7004;48.206;16.402;2023-04-04T10:21:02;100352.13;;;7.14;31.86
13869;BME280;7004;48.206;16.402;2023-04-04T10:23:29;100366.47;;;7.50;31.00
13869;BME280;7004;48.206;16.402;2023-04-04T10:25:57;100350.38;;;7.57;31.42
13869;BME280;7004;48.206;16.402;2023-04-04T10:28:25;100344.06;;;9.02;31.18
13869;BME280;7004;48.206;16.402;2023-04-04T10:37:11;100332.41;;;8.88;31.18
13869;BME280;7004;48.206;16.402;2023-04-04T10:40:08;100329.53;;;6.87;30.27
13869;BME280;7004;48.206;16.402;2023-04-04T10:42:45;100329.69;;;7.91;30.17
13869;BME280;7004;48.206;16.402;2023-04-04T10:45:16;100329.13;;;8.64;29.30
13869;BME280;7004;48.206;16.402;2023-04-04T10:47:43;100342.91;;;6.57;31.47
13869;BME280;7004;48.206;16.402;2023-04-04T10:50:10;100332.38;;;7.48;30.15
13869;BME280;7004;48.206;16.402;2023-04-04T10:52:40;100307.00;;;9.24;30.41
13869;BME280;7004;48.206;16.402;2023-04-04T10:55:11;100310.59;;;7.65;31.42
13869;BME280;7004;48.206;16.402;2023-04-04T10:57:48;100297.06;;;8.92;30.29
13869;BME280;7004;48.206;16.402;2023-04-04T11:00:19;100307.09;;;9.03;30.27
13869;BME280;7004;48.206;16.402;2023-04-04T11:02:59;100305.31;;;9.04;31.60
13869;BME280;7004;48.206;16.402;2023-04-04T11:05:36;100313.09;;;7.48;32.03
13869;BME280;7004;48.206;16.402;2023-04-04T11:08:09;100300.44;;;9.67;30.87
13869;BME280;7004;48.206;16.402;2023-04-04T11:10:43;100321.41;;;7.79;32.63
13869;BME280;7004;48.206;16.402;2023-04-04T11:21:21;100281.63;;;9.21;31.01
13869;BME280;7004;48.206;16.402;2023-04-04T11:24:11;100272.72;;;9.05;30.58
13869;BME280;7004;48.206;16.402;2023-04-04T11:26:41;100288.97;;;8.20;30.89
13869;BME280;7004;48.206;16.402;2023-04-04T11:29:07;100265.28;;;10.98;29.42
13869;BME280;7004;48.206;16.402;2023-04-04T11:31:40;100263.16;;;9.38;30.45
13869;BME280;7004;48.206;16.402;2023-04-04T11:34:09;100266.44;;;8.52;30.75
13869;BME280;7004;48.206;16.402;2023-04-04T11:39:14;100257.78;;;8.29;29.49
13869;BME280;7004;48.206;16.402;2023-04-04T11:41:55;100241.66;;;9.81;30.02
13869;BME280;7004;48.206;16.402;2023-04-04T11:44:26;100230.03;;;11.13;28.26
13869;BME280;7004;48.206;16.402;2023-04-04T11:47:10;100235.78;;;9.24;28.94
13869;BME280;7004;48.206;16.402;2023-04-04T11:49:40;100222.28;;;8.38;29.66
13869;BME280;7004;48.206;16.402;2023-04-04T11:52:11;100220.09;;;8.84;29.25
13869;BME280;7004;48.206;16.402;2023-04-04T11:54:39;100218.09;;;8.14;29.78
13869;BME280;7004;48.206;16.402;2023-04-04T11:57:07;100208.44;;;8.90;28.36
13869;BME280;7004;48.206;16.402;2023-04-04T11:59:37;100205.94;;;10.07;28.34
13869;BME280;7004;48.206;16.402;2023-04-04T12:02:04;100182.81;;;9.61;30.22
13869;BME280;7004;48.206;16.402;2023-04-04T12:04:30;100215.34;;;9.10;28.20
13869;BME280;7004;48.206;16.402;2023-04-04T12:06:57;100205.50;;;9.99;27.47
13869;BME280;7004;48.206;16.402;2023-04-04T12:09:25;100200.09;;;9.34;28.71
13869;BME280;7004;48.206;16.402;2023-04-04T12:11:51;100188.25;;;9.76;27.68
13869;BME280;7004;48.206;16.402;2023-04-04T12:14:18;100187.34;;;8.53;28.71
13869;BME280;7004;48.206;16.402;2023-04-04T12:16:47;100186.00;;;10.01;27.56
13869;BME280;7004;48.206;16.402;2023-04-04T12:19:13;100182.53;;;8.98;28.81
13869;BME280;7004;48.206;16.402;2023-04-04T12:21:40;100163.00;;;10.19;29.98
13869;BME280;7004;48.206;16.402;2023-04-04T12:24:07;100175.78;;;10.11;27.84
13869;BME280;7004;48.206;16.402;2023-04-04T12:26:42;100176.88;;;9.23;27.66
13869;BME280;7004;48.206;16.402;2023-04-04T12:29:11;100165.72;;;10.81;26.56
13869;BME280;7004;48.206;16.402;2023-04-04T12:31:40;100168.06;;;10.40;27.29
13869;BME280;7004;48.206;16.402;2023-04-04T12:34:06;100169.22;;;9.69;26.96
13869;BME280;7004;48.206;16.402;2023-04-04T12:36:37;100170.56;;;9.43;27.30
13869;BME280;7004;48.206;16.402;2023-04-04T12:39:08;100162.75;;;9.24;27.39
13869;BME280;7004;48.206;16.402;2023-04-04T12:41:59;100161.88;;;8.89;27.13
13869;BME280;7004;48.206;16.402;2023-04-04T12:44:37;100161.28;;;9.01;27.12
13869;BME280;7004;48.206;16.402;2023-04-04T12:47:06;100152.28;;;8.51;28.22
13869;BME280;7004;48.206;16.402;2023-04-04T12:49:46;100148.03;;;10.20;27.63
13869;BME280;7004;48.206;16.402;2023-04-04T12:52:21;100154.75;;;9.26;28.08
13869;BME280;7004;48.206;16.402;2023-04-04T12:54:49;100148.63;;;10.09;28.43
13869;BME280;7004;48.206;16.402;2023-04-04T12:57:21;100147.72;;;9.09;28.47
13869;BME280;7004;48.206;16.402;2023-04-04T12:59:48;100155.72;;;8.71;28.96
13869;BME280;7004;48.206;16.402;2023-04-04T13:02:17;100162.75;;;8.53;29.46
13869;BME280;7004;48.206;16.402;2023-04-04T13:04:46;100140.19;;;8.28;28.12
13869;BME280;7004;48.206;16.402;2023-04-04T13:07:28;100150.28;;;8.57;28.98
13869;BME280;7004;48.206;16.402;2023-04-04T13:10:01;100148.31;;;9.98;28.00
13869;BME280;7004;48.206;16.402;2023-04-04T13:12:59;100143.38;;;9.76;27.88
13869;BME280;7004;48.206;16.402;2023-04-04T13:15:50;100136.84;;;9.32;28.34
13869;BME280;7004;48.206;16.402;2023-04-04T13:18:20;100128.34;;;10.41;27.94
13869;BME280;7004;48.206;16.402;2023-04-04T13:20:48;100138.19;;;9.57;27.85
13869;BME280;7004;48.206;16.402;2023-04-04T13:23:15;100135.69;;;8.86;28.91
13869;BME280;7004;48.206;16.402;2023-04-04T13:25:41;100136.69;;;8.28;29.26